sensor_id;sensor_type;location;lat;lon;timestamp;P1;durP1;ratioP1;P2;durP2;ratioP2
21305;SDS011;10812;51.838;5.838;2022-12-28T00:01:19;4.60;;;2.90;;
21305;SDS011;10812;51.838;5.838;2022-12-28T00:03:48;3.27;;;2.20;;
21305;SDS011;10812;51.838;5.838;2022-12-28T00:06:19;5.43;;;2.50;;
21305;SDS011;10812;51.838;5.838;2022-12-28T00:08:50;4.93;;;2.77;;
21305;SDS011;10812;51.838;5.838;2022-12-28T00:11:19;7.43;;;2.93;;
21305;SDS011;10812;51.838;5.838;2022-12-28T00:13:56;6.93;;;3.20;;
21305;SDS011;10812;51.838;5.838;2022-12-28T00:16:27;7.67;;;2.47;;
21305;SDS011;10812;51.838;5.838;2022-12-28T00:18:56;4.30;;;2.60;;
21305;SDS011;10812;51.838;5.838;2022-12-28T00:21:27;5.33;;;3.03;;
21305;SDS011;10812;51.838;5.838;2022-12-28T00:23:56;4.53;;;2.40;;
21305;SDS011;10812;51.838;5.838;2022-12-28T00:26:26;6.70;;;2.93;;
21305;SDS011;10812;51.838;5.838;2022-12-28T00:28:56;7.97;;;2.73;;
21305;SDS011;10812;51.838;5.838;2022-12-28T00:31:31;8.70;;;3.33;;
21305;SDS011;10812;51.838;5.838;2022-12-28T00:33:59;5.77;;;2.73;;
21305;SDS011;10812;51.838;5.838;2022-12-28T00:36:29;5.50;;;3.20;;
21305;SDS011;10812;51.838;5.838;2022-12-28T00:39:18;3.27;;;2.30;;
21305;SDS011;10812;51.838;5.838;2022-12-28T00:41:46;6.20;;;2.50;;
21305;SDS011;10812;51.838;5.838;2022-12-28T00:44:15;3.47;;;2.30;;
21305;SDS011;10812;51.838;5.838;2022-12-28T00:46:43;4.13;;;2.13;;
21305;SDS011;10812;51.838;5.838;2022-12-28T00:49:11;6.07;;;2.60;;
21305;SDS011;10812;51.838;5.838;2022-12-28T00:51:40;6.50;;;2.73;;
21305;SDS011;10812;51.838;5.838;2022-12-28T00:54:08;7.00;;;3.17;;
21305;SDS011;10812;51.838;5.838;2022-12-28T00:56:38;6.57;;;2.47;;
21305;SDS011;10812;51.838;5.838;2022-12-28T00:59:08;4.23;;;2.30;;
21305;SDS011;10812;51.838;5.838;2022-12-28T01:01:37;10.53;;;3.43;;
21305;SDS011;10812;51.838;5.838;2022-12-28T01:04:05;6.20;;;2.80;;
21305;SDS011;10812;51.838;5.838;2022-12-28T01:06:33;9.57;;;3.77;;
21305;SDS011;10812;51.838;5.838;2022-12-28T01:09:03;5.70;;;3.07;;
21305;SDS011;10812;51.838;5.838;2022-12-28T01:11:31;5.87;;;2.60;;
21305;SDS011;10812;51.838;5.838;2022-12-28T01:14:00;3.97;;;2.60;;
21305;SDS011;10812;51.838;5.838;2022-12-28T01:16:30;4.03;;;2.63;;
21305;SDS011;10812;51.838;5.838;2022-12-28T01:19:00;5.20;;;2.97;;
21305;SDS011;10812;51.838;5.838;2022-12-28T01:21:31;5.70;;;2.90;;
21305;SDS011;10812;51.838;5.838;2022-12-28T01:24:00;5.17;;;3.30;;
21305;SDS011;10812;51.838;5.838;2022-12-28T01:26:31;2.97;;;2.43;;
21305;SDS011;10812;51.838;5.838;2022-12-28T01:28:59;5.50;;;3.00;;
21305;SDS011;10812;51.838;5.838;2022-12-28T01:31:28;4.70;;;2.63;;
21305;SDS011;10812;51.838;5.838;2022-12-28T01:33:56;6.77;;;3.17;;
21305;SDS011;10812;51.838;5.838;2022-12-28T01:36:25;7.10;;;3.03;;
21305;SDS011;10812;51.838;5.838;2022-12-28T01:38:55;4.33;;;2.80;;
21305;SDS011;10812;51.838;5.838;2022-12-28T01:41:26;6.03;;;2.70;;
21305;SDS011;10812;51.838;5.838;2022-12-28T01:47:07;6.03;;;3.17;;
21305;SDS011;10812;51.838;5.838;2022-12-28T01:49:39;8.73;;;3.07;;
21305;SDS011;10812;51.838;5.838;2022-12-28T01:52:11;4.70;;;2.70;;
21305;SDS011;10812;51.838;5.838;2022-12-28T01:54:44;3.83;;;2.87;;
21305;SDS011;10812;51.838;5.838;2022-12-28T01:57:15;3.10;;;2.67;;
21305;SDS011;10812;51.838;5.838;2022-12-28T01:59:46;3.10;;;2.70;;
21305;SDS011;10812;51.838;5.838;2022-12-28T02:02:18;6.47;;;2.87;;
21305;SDS011;10812;51.838;5.838;2022-12-28T02:04:47;5.90;;;2.70;;
21305;SDS011;10812;51.838;5.838;2022-12-28T02:07:18;6.53;;;2.90;;
21305;SDS011;10812;51.838;5.838;2022-12-28T02:09:54;4.97;;;2.40;;
21305;SDS011;10812;51.838;5.838;2022-12-28T02:12:44;4.17;;;2.47;;
21305;SDS011;10812;51.838;5.838;2022-12-28T02:15:12;5.33;;;2.63;;
21305;SDS011;10812;51.838;5.838;2022-12-28T02:17:48;9.50;;;5.30;;
21305;SDS011;10812;51.838;5.838;2022-12-28T02:20:16;3.37;;;2.30;;
21305;SDS011;10812;51.838;5.838;2022-12-28T02:22:58;5.43;;;2.73;;
21305;SDS011;10812;51.838;5.838;2022-12-28T02:29:02;5.47;;;2.40;;
21305;SDS011;10812;51.838;5.838;2022-12-28T02:31:59;4.10;;;2.20;;
21305;SDS011;10812;51.838;5.838;2022-12-28T02:34:36;5.07;;;2.50;;
21305;SDS011;10812;51.838;5.838;2022-12-28T02:37:12;4.50;;;2.47;;
21305;SDS011;10812;51.838;5.838;2022-12-28T02:39:46;5.37;;;3.27;;
21305;SDS011;10812;51.838;5.838;2022-12-28T02:42:18;5.33;;;2.40;;
21305;SDS011;10812;51.838;5.838;2022-12-28T02:44:49;5.10;;;2.30;;
21305;SDS011;10812;51.838;5.838;2022-12-28T02:47:35;5.43;;;2.47;;
21305;SDS011;10812;51.838;5.838;2022-12-28T02:50:21;5.17;;;2.67;;
21305;SDS011;10812;51.838;5.838;2022-12-28T02:56:09;3.73;;;3.03;;
21305;SDS011;10812;51.838;5.838;2022-12-28T02:59:02;3.90;;;2.80;;
21305;SDS011;10812;51.838;5.838;2022-12-28T03:07:17;7.30;;;3.13;;
21305;SDS011;10812;51.838;5.838;2022-12-28T03:10:09;6.20;;;3.40;;
21305;SDS011;10812;51.838;5.838;2022-12-28T03:12:45;5.27;;;3.33;;
21305;SDS011;10812;51.838;5.838;2022-12-28T03:15:17;9.23;;;3.80;;
21305;SDS011;10812;51.838;5.838;2022-12-28T03:17:56;4.87;;;3.53;;
21305;SDS011;10812;51.838;5.838;2022-12-28T03:20:46;5.40;;;3.47;;
21305;SDS011;10812;51.838;5.838;2022-12-28T03:23:36;5.73;;;3.67;;
21305;SDS011;10812;51.838;5.838;2022-12-28T03:26:24;6.33;;;3.83;;
21305;SDS011;10812;51.838;5.838;2022-12-28T03:29:12;7.07;;;3.97;;
21305;SDS011;10812;51.838;5.838;2022-12-28T03:32:00;4.87;;;3.83;;
21305;SDS011;10812;51.838;5.838;2022-12-28T03:34:29;6.63;;;3.80;;
21305;SDS011;10812;51.838;5.838;2022-12-28T03:36:58;7.40;;;4.17;;
21305;SDS011;10812;51.838;5.838;2022-12-28T03:39:35;4.93;;;3.83;;
21305;SDS011;10812;51.838;5.838;2022-12-28T03:42:11;5.73;;;3.90;;
21305;SDS011;10812;51.838;5.838;2022-12-28T03:45:01;6.90;;;3.93;;
21305;SDS011;10812;51.838;5.838;2022-12-28T03:47:36;6.63;;;4.63;;
21305;SDS011;10812;51.838;5.838;2022-12-28T03:50:07;6.40;;;4.20;;
21305;SDS011;10812;51.838;5.838;2022-12-28T03:52:36;5.63;;;4.40;;
21305;SDS011;10812;51.838;5.838;2022-12-28T03:55:05;6.13;;;3.93;;
21305;SDS011;10812;51.838;5.838;2022-12-28T03:57:34;8.40;;;4.20;;
21305;SDS011;10812;51.838;5.838;2022-12-28T04:00:02;7.33;;;4.70;;
21305;SDS011;10812;51.838;5.838;2022-12-28T04:02:32;5.47;;;4.20;;
21305;SDS011;10812;51.838;5.838;2022-12-28T04:05:00;4.90;;;4.37;;
21305;SDS011;10812;51.838;5.838;2022-12-28T04:07:28;5.97;;;4.37;;
21305;SDS011;10812;51.838;5.838;2022-12-28T04:09:56;7.30;;;4.90;;
21305;SDS011;10812;51.838;5.838;2022-12-28T04:12:26;6.93;;;4.57;;
21305;SDS011;10812;51.838;5.838;2022-12-28T04:14:54;6.97;;;4.87;;
21305;SDS011;10812;51.838;5.838;2022-12-28T04:17:22;7.47;;;4.90;;
21305;SDS011;10812;51.838;5.838;2022-12-28T04:19:50;7.07;;;4.07;;
21305;SDS011;10812;51.838;5.838;2022-12-28T04:22:18;6.27;;;4.53;;
21305;SDS011;10812;51.838;5.838;2022-12-28T04:24:46;6.40;;;4.63;;
21305;SDS011;10812;51.838;5.838;2022-12-28T04:27:14;7.30;;;5.10;;
21305;SDS011;10812;51.838;5.838;2022-12-28T04:29:44;4.83;;;4.33;;
21305;SDS011;10812;51.838;5.838;2022-12-28T04:32:12;6.77;;;4.67;;
21305;SDS011;10812;51.838;5.838;2022-12-28T04:34:40;8.07;;;4.70;;
21305;SDS011;10812;51.838;5.838;2022-12-28T04:37:14;6.93;;;4.47;;
21305;SDS011;10812;51.838;5.838;2022-12-28T04:39:42;5.47;;;4.47;;
21305;SDS011;10812;51.838;5.838;2022-12-28T04:42:22;6.47;;;4.60;;
21305;SDS011;10812;51.838;5.838;2022-12-28T04:44:51;6.77;;;4.33;;
21305;SDS011;10812;51.838;5.838;2022-12-28T04:47:20;8.40;;;4.00;;
21305;SDS011;10812;51.838;5.838;2022-12-28T04:49:48;6.60;;;4.20;;
21305;SDS011;10812;51.838;5.838;2022-12-28T04:52:16;8.07;;;4.33;;
21305;SDS011;10812;51.838;5.838;2022-12-28T04:54:44;6.50;;;4.30;;
21305;SDS011;10812;51.838;5.838;2022-12-28T04:57:12;8.17;;;4.97;;
21305;SDS011;10812;51.838;5.838;2022-12-28T04:59:40;8.93;;;5.07;;
21305;SDS011;10812;51.838;5.838;2022-12-28T05:02:10;7.97;;;4.10;;
21305;SDS011;10812;51.838;5.838;2022-12-28T05:04:38;7.10;;;4.50;;
21305;SDS011;10812;51.838;5.838;2022-12-28T05:07:06;4.70;;;3.93;;
21305;SDS011;10812;51.838;5.838;2022-12-28T05:09:34;7.20;;;4.90;;
21305;SDS011;10812;51.838;5.838;2022-12-28T05:12:02;7.10;;;4.33;;
21305;SDS011;10812;51.838;5.838;2022-12-28T05:14:31;8.60;;;5.30;;
21305;SDS011;10812;51.838;5.838;2022-12-28T05:17:02;9.53;;;4.53;;
21305;SDS011;10812;51.838;5.838;2022-12-28T05:19:32;7.93;;;4.30;;
21305;SDS011;10812;51.838;5.838;2022-12-28T05:22:00;8.90;;;4.40;;
21305;SDS011;10812;51.838;5.838;2022-12-28T05:24:28;6.93;;;4.73;;
21305;SDS011;10812;51.838;5.838;2022-12-28T05:26:57;5.23;;;4.30;;
21305;SDS011;10812;51.838;5.838;2022-12-28T05:29:25;7.60;;;4.63;;
21305;SDS011;10812;51.838;5.838;2022-12-28T05:31:53;7.00;;;4.47;;
21305;SDS011;10812;51.838;5.838;2022-12-28T05:34:21;7.13;;;4.50;;
21305;SDS011;10812;51.838;5.838;2022-12-28T05:36:50;5.93;;;4.23;;
21305;SDS011;10812;51.838;5.838;2022-12-28T05:39:18;5.07;;;3.80;;
21305;SDS011;10812;51.838;5.838;2022-12-28T05:41:46;6.60;;;4.40;;
21305;SDS011;10812;51.838;5.838;2022-12-28T05:44:15;6.13;;;4.03;;
21305;SDS011;10812;51.838;5.838;2022-12-28T05:46:43;4.40;;;4.00;;
21305;SDS011;10812;51.838;5.838;2022-12-28T05:49:11;4.53;;;3.73;;
21305;SDS011;10812;51.838;5.838;2022-12-28T05:51:39;6.57;;;4.40;;
21305;SDS011;10812;51.838;5.838;2022-12-28T05:54:08;5.37;;;3.70;;
21305;SDS011;10812;51.838;5.838;2022-12-28T05:56:37;8.80;;;3.70;;
21305;SDS011;10812;51.838;5.838;2022-12-28T05:59:06;4.47;;;3.77;;
21305;SDS011;10812;51.838;5.838;2022-12-28T06:01:35;6.33;;;4.10;;
21305;SDS011;10812;51.838;5.838;2022-12-28T06:04:06;7.57;;;4.10;;
21305;SDS011;10812;51.838;5.838;2022-12-28T06:06:35;3.87;;;3.57;;
21305;SDS011;10812;51.838;5.838;2022-12-28T06:09:03;4.93;;;3.20;;
21305;SDS011;10812;51.838;5.838;2022-12-28T06:11:33;5.07;;;3.50;;
21305;SDS011;10812;51.838;5.838;2022-12-28T06:14:01;5.87;;;4.13;;
21305;SDS011;10812;51.838;5.838;2022-12-28T06:16:31;6.47;;;3.63;;
21305;SDS011;10812;51.838;5.838;2022-12-28T06:19:05;4.43;;;3.67;;
21305;SDS011;10812;51.838;5.838;2022-12-28T06:21:36;6.03;;;3.50;;
21305;SDS011;10812;51.838;5.838;2022-12-28T06:24:06;3.40;;;2.97;;
21305;SDS011;10812;51.838;5.838;2022-12-28T06:26:37;3.60;;;3.13;;
21305;SDS011;10812;51.838;5.838;2022-12-28T06:29:07;3.63;;;3.20;;
21305;SDS011;10812;51.838;5.838;2022-12-28T06:31:36;4.33;;;3.30;;
21305;SDS011;10812;51.838;5.838;2022-12-28T06:34:06;13.07;;;3.70;;
21305;SDS011;10812;51.838;5.838;2022-12-28T06:36:35;7.43;;;3.40;;
21305;SDS011;10812;51.838;5.838;2022-12-28T06:39:05;5.20;;;3.20;;
21305;SDS011;10812;51.838;5.838;2022-12-28T06:41:37;5.33;;;3.73;;
21305;SDS011;10812;51.838;5.838;2022-12-28T06:44:06;3.97;;;3.30;;
21305;SDS011;10812;51.838;5.838;2022-12-28T06:46:35;5.53;;;3.00;;
21305;SDS011;10812;51.838;5.838;2022-12-28T06:49:03;3.93;;;2.90;;
21305;SDS011;10812;51.838;5.838;2022-12-28T06:51:33;4.77;;;2.70;;
21305;SDS011;10812;51.838;5.838;2022-12-28T06:54:05;3.97;;;2.80;;
21305;SDS011;10812;51.838;5.838;2022-12-28T06:56:35;4.43;;;2.80;;
21305;SDS011;10812;51.838;5.838;2022-12-28T06:59:04;3.97;;;2.80;;
21305;SDS011;10812;51.838;5.838;2022-12-28T07:01:34;4.63;;;2.97;;
21305;SDS011;10812;51.838;5.838;2022-12-28T07:04:04;2.73;;;2.43;;
21305;SDS011;10812;51.838;5.838;2022-12-28T07:06:34;2.97;;;2.47;;
21305;SDS011;10812;51.838;5.838;2022-12-28T07:09:04;4.33;;;2.43;;
21305;SDS011;10812;51.838;5.838;2022-12-28T07:11:33;3.23;;;2.70;;
21305;SDS011;10812;51.838;5.838;2022-12-28T07:14:03;3.07;;;2.53;;
21305;SDS011;10812;51.838;5.838;2022-12-28T07:16:34;2.70;;;2.40;;
21305;SDS011;10812;51.838;5.838;2022-12-28T07:19:02;2.93;;;2.20;;
21305;SDS011;10812;51.838;5.838;2022-12-28T07:21:31;4.57;;;2.30;;
21305;SDS011;10812;51.838;5.838;2022-12-28T07:24:01;3.17;;;2.50;;
21305;SDS011;10812;51.838;5.838;2022-12-28T07:26:30;2.60;;;2.30;;
21305;SDS011;10812;51.838;5.838;2022-12-28T07:29:00;3.67;;;2.57;;
21305;SDS011;10812;51.838;5.838;2022-12-28T07:31:31;3.83;;;3.00;;
21305;SDS011;10812;51.838;5.838;2022-12-28T07:34:09;3.13;;;2.67;;
21305;SDS011;10812;51.838;5.838;2022-12-28T07:36:38;3.10;;;2.80;;
21305;SDS011;10812;51.838;5.838;2022-12-28T07:39:06;3.50;;;3.20;;
21305;SDS011;10812;51.838;5.838;2022-12-28T07:41:35;6.50;;;2.90;;
21305;SDS011;10812;51.838;5.838;2022-12-28T07:44:04;4.50;;;3.10;;
21305;SDS011;10812;51.838;5.838;2022-12-28T07:46:34;4.47;;;2.63;;
21305;SDS011;10812;51.838;5.838;2022-12-28T07:49:03;3.00;;;2.40;;
21305;SDS011;10812;51.838;5.838;2022-12-28T07:51:32;4.53;;;2.93;;
21305;SDS011;10812;51.838;5.838;2022-12-28T07:54:02;3.23;;;2.83;;
21305;SDS011;10812;51.838;5.838;2022-12-28T07:56:31;4.73;;;2.80;;
21305;SDS011;10812;51.838;5.838;2022-12-28T07:58:59;3.43;;;2.70;;
21305;SDS011;10812;51.838;5.838;2022-12-28T08:01:29;3.70;;;2.90;;
21305;SDS011;10812;51.838;5.838;2022-12-28T08:04:00;3.43;;;2.83;;
21305;SDS011;10812;51.838;5.838;2022-12-28T08:06:32;4.43;;;2.73;;
21305;SDS011;10812;51.838;5.838;2022-12-28T08:09:01;5.07;;;3.00;;
21305;SDS011;10812;51.838;5.838;2022-12-28T08:11:30;3.03;;;2.70;;
21305;SDS011;10812;51.838;5.838;2022-12-28T08:14:00;4.27;;;2.63;;
21305;SDS011;10812;51.838;5.838;2022-12-28T08:16:29;5.17;;;2.53;;
21305;SDS011;10812;51.838;5.838;2022-12-28T08:19:00;3.20;;;2.90;;
21305;SDS011;10812;51.838;5.838;2022-12-28T08:21:29;5.00;;;2.30;;
21305;SDS011;10812;51.838;5.838;2022-12-28T08:23:59;5.10;;;2.37;;
21305;SDS011;10812;51.838;5.838;2022-12-28T08:26:28;3.13;;;2.57;;
21305;SDS011;10812;51.838;5.838;2022-12-28T08:28:58;3.80;;;2.80;;
21305;SDS011;10812;51.838;5.838;2022-12-28T08:31:29;5.70;;;3.63;;
21305;SDS011;10812;51.838;5.838;2022-12-28T08:33:59;3.20;;;2.37;;
21305;SDS011;10812;51.838;5.838;2022-12-28T08:36:30;2.87;;;2.00;;
21305;SDS011;10812;51.838;5.838;2022-12-28T08:38:59;2.90;;;2.60;;
21305;SDS011;10812;51.838;5.838;2022-12-28T08:41:28;3.50;;;2.30;;
21305;SDS011;10812;51.838;5.838;2022-12-28T08:43:56;3.43;;;3.13;;
21305;SDS011;10812;51.838;5.838;2022-12-28T08:46:25;3.73;;;2.17;;
21305;SDS011;10812;51.838;5.838;2022-12-28T08:48:56;2.97;;;2.60;;
21305;SDS011;10812;51.838;5.838;2022-12-28T08:51:27;2.93;;;2.47;;
21305;SDS011;10812;51.838;5.838;2022-12-28T08:53:57;2.90;;;2.43;;
21305;SDS011;10812;51.838;5.838;2022-12-28T08:56:27;2.40;;;2.13;;
21305;SDS011;10812;51.838;5.838;2022-12-28T08:58:56;3.53;;;2.60;;
21305;SDS011;10812;51.838;5.838;2022-12-28T09:01:26;4.03;;;3.07;;
21305;SDS011;10812;51.838;5.838;2022-12-28T09:03:56;3.93;;;2.43;;
21305;SDS011;10812;51.838;5.838;2022-12-28T09:06:30;3.33;;;2.73;;
21305;SDS011;10812;51.838;5.838;2022-12-28T09:08:59;2.60;;;2.40;;
21305;SDS011;10812;51.838;5.838;2022-12-28T09:11:32;3.37;;;2.87;;
21305;SDS011;10812;51.838;5.838;2022-12-28T09:14:01;4.90;;;2.73;;
21305;SDS011;10812;51.838;5.838;2022-12-28T09:16:30;3.53;;;3.00;;
21305;SDS011;10812;51.838;5.838;2022-12-28T09:19:00;7.17;;;3.20;;
21305;SDS011;10812;51.838;5.838;2022-12-28T09:21:33;5.13;;;3.27;;
21305;SDS011;10812;51.838;5.838;2022-12-28T09:24:02;6.53;;;3.60;;
21305;SDS011;10812;51.838;5.838;2022-12-28T09:26:33;4.97;;;3.47;;
21305;SDS011;10812;51.838;5.838;2022-12-28T09:29:02;6.37;;;3.43;;
21305;SDS011;10812;51.838;5.838;2022-12-28T09:31:32;3.80;;;3.43;;
21305;SDS011;10812;51.838;5.838;2022-12-28T09:34:02;4.43;;;3.10;;
21305;SDS011;10812;51.838;5.838;2022-12-28T09:36:52;6.73;;;3.57;;
21305;SDS011;10812;51.838;5.838;2022-12-28T09:39:20;4.63;;;3.13;;
21305;SDS011;10812;51.838;5.838;2022-12-28T09:41:51;8.47;;;4.00;;
21305;SDS011;10812;51.838;5.838;2022-12-28T09:44:28;4.57;;;3.10;;
21305;SDS011;10812;51.838;5.838;2022-12-28T09:47:10;6.37;;;3.37;;
21305;SDS011;10812;51.838;5.838;2022-12-28T09:49:45;5.20;;;3.20;;
21305;SDS011;10812;51.838;5.838;2022-12-28T09:52:25;4.80;;;3.00;;
21305;SDS011;10812;51.838;5.838;2022-12-28T09:54:56;5.90;;;3.50;;
21305;SDS011;10812;51.838;5.838;2022-12-28T09:57:34;5.57;;;3.30;;
21305;SDS011;10812;51.838;5.838;2022-12-28T10:00:05;5.43;;;2.73;;
21305;SDS011;10812;51.838;5.838;2022-12-28T10:02:42;5.57;;;3.37;;
21305;SDS011;10812;51.838;5.838;2022-12-28T10:05:14;5.60;;;2.73;;
21305;SDS011;10812;51.838;5.838;2022-12-28T10:07:44;5.77;;;3.00;;
21305;SDS011;10812;51.838;5.838;2022-12-28T10:10:12;5.07;;;3.10;;
21305;SDS011;10812;51.838;5.838;2022-12-28T10:12:43;5.17;;;3.90;;
21305;SDS011;10812;51.838;5.838;2022-12-28T10:15:12;4.37;;;3.30;;
21305;SDS011;10812;51.838;5.838;2022-12-28T10:17:41;4.77;;;2.73;;
21305;SDS011;10812;51.838;5.838;2022-12-28T10:20:14;4.00;;;2.67;;
21305;SDS011;10812;51.838;5.838;2022-12-28T10:22:47;3.83;;;2.40;;
21305;SDS011;10812;51.838;5.838;2022-12-28T10:25:19;6.73;;;3.10;;
21305;SDS011;10812;51.838;5.838;2022-12-28T10:27:49;5.00;;;2.70;;
21305;SDS011;10812;51.838;5.838;2022-12-28T10:30:18;3.73;;;2.60;;
21305;SDS011;10812;51.838;5.838;2022-12-28T10:32:50;10.43;;;2.67;;
21305;SDS011;10812;51.838;5.838;2022-12-28T10:35:28;4.47;;;2.67;;
21305;SDS011;10812;51.838;5.838;2022-12-28T10:38:02;6.23;;;2.83;;
21305;SDS011;10812;51.838;5.838;2022-12-28T10:40:33;3.23;;;2.33;;
21305;SDS011;10812;51.838;5.838;2022-12-28T10:43:04;4.70;;;2.17;;
21305;SDS011;10812;51.838;5.838;2022-12-28T10:45:37;2.57;;;1.80;;
21305;SDS011;10812;51.838;5.838;2022-12-28T10:48:08;3.40;;;2.13;;
21305;SDS011;10812;51.838;5.838;2022-12-28T10:50:45;3.00;;;2.37;;
21305;SDS011;10812;51.838;5.838;2022-12-28T10:53:19;4.77;;;2.73;;
21305;SDS011;10812;51.838;5.838;2022-12-28T10:58:48;3.53;;;1.90;;
21305;SDS011;10812;51.838;5.838;2022-12-28T11:01:18;5.03;;;4.17;;
21305;SDS011;10812;51.838;5.838;2022-12-28T11:04:02;5.17;;;3.87;;
21305;SDS011;10812;51.838;5.838;2022-12-28T11:06:33;3.43;;;2.70;;
21305;SDS011;10812;51.838;5.838;2022-12-28T11:09:05;2.70;;;2.27;;
21305;SDS011;10812;51.838;5.838;2022-12-28T11:11:41;2.80;;;1.80;;
21305;SDS011;10812;51.838;5.838;2022-12-28T11:14:12;2.73;;;1.93;;
21305;SDS011;10812;51.838;5.838;2022-12-28T11:16:46;2.77;;;1.60;;
21305;SDS011;10812;51.838;5.838;2022-12-28T11:19:15;1.73;;;1.50;;
21305;SDS011;10812;51.838;5.838;2022-12-28T11:21:43;3.40;;;1.77;;
21305;SDS011;10812;51.838;5.838;2022-12-28T11:24:14;2.03;;;1.50;;
21305;SDS011;10812;51.838;5.838;2022-12-28T11:26:44;1.93;;;1.50;;
21305;SDS011;10812;51.838;5.838;2022-12-28T11:29:14;2.40;;;1.90;;
21305;SDS011;10812;51.838;5.838;2022-12-28T11:31:46;1.93;;;1.73;;
21305;SDS011;10812;51.838;5.838;2022-12-28T11:34:18;2.43;;;1.63;;
21305;SDS011;10812;51.838;5.838;2022-12-28T11:36:51;2.33;;;1.90;;
21305;SDS011;10812;51.838;5.838;2022-12-28T11:39:31;1.83;;;1.73;;
21305;SDS011;10812;51.838;5.838;2022-12-28T11:42:09;2.53;;;1.60;;
21305;SDS011;10812;51.838;5.838;2022-12-28T11:44:58;2.50;;;2.00;;
21305;SDS011;10812;51.838;5.838;2022-12-28T11:47:29;2.17;;;1.97;;
21305;SDS011;10812;51.838;5.838;2022-12-28T11:53:18;4.03;;;2.00;;
21305;SDS011;10812;51.838;5.838;2022-12-28T12:01:56;3.57;;;1.83;;
21305;SDS011;10812;51.838;5.838;2022-12-28T12:04:30;3.30;;;2.20;;
21305;SDS011;10812;51.838;5.838;2022-12-28T12:10:11;2.63;;;1.80;;
21305;SDS011;10812;51.838;5.838;2022-12-28T12:12:50;5.00;;;1.90;;
21305;SDS011;10812;51.838;5.838;2022-12-28T12:15:20;4.00;;;2.47;;
21305;SDS011;10812;51.838;5.838;2022-12-28T12:17:59;2.50;;;1.67;;
21305;SDS011;10812;51.838;5.838;2022-12-28T12:20:34;2.37;;;1.90;;
21305;SDS011;10812;51.838;5.838;2022-12-28T12:23:16;3.03;;;1.83;;
21305;SDS011;10812;51.838;5.838;2022-12-28T12:25:52;4.40;;;2.60;;
21305;SDS011;10812;51.838;5.838;2022-12-28T12:28:28;2.63;;;1.97;;
21305;SDS011;10812;51.838;5.838;2022-12-28T12:31:02;5.30;;;2.30;;
21305;SDS011;10812;51.838;5.838;2022-12-28T12:33:34;3.47;;;2.10;;
21305;SDS011;10812;51.838;5.838;2022-12-28T12:36:10;2.37;;;1.70;;
21305;SDS011;10812;51.838;5.838;2022-12-28T12:39:12;3.27;;;2.20;;
21305;SDS011;10812;51.838;5.838;2022-12-28T12:41:57;3.77;;;1.80;;
21305;SDS011;10812;51.838;5.838;2022-12-28T12:44:36;4.43;;;2.90;;
21305;SDS011;10812;51.838;5.838;2022-12-28T12:47:12;3.40;;;2.00;;
21305;SDS011;10812;51.838;5.838;2022-12-28T12:49:58;5.00;;;3.03;;
21305;SDS011;10812;51.838;5.838;2022-12-28T12:52:41;4.20;;;2.67;;
21305;SDS011;10812;51.838;5.838;2022-12-28T12:55:22;7.77;;;3.70;;
21305;SDS011;10812;51.838;5.838;2022-12-28T12:58:00;5.60;;;2.37;;
21305;SDS011;10812;51.838;5.838;2022-12-28T13:00:40;3.73;;;2.40;;
21305;SDS011;10812;51.838;5.838;2022-12-28T13:03:17;2.97;;;2.33;;
21305;SDS011;10812;51.838;5.838;2022-12-28T13:05:58;4.30;;;2.00;;
21305;SDS011;10812;51.838;5.838;2022-12-28T13:08:28;2.33;;;1.90;;
21305;SDS011;10812;51.838;5.838;2022-12-28T13:11:02;4.07;;;2.00;;
21305;SDS011;10812;51.838;5.838;2022-12-28T13:13:34;7.50;;;2.17;;
21305;SDS011;10812;51.838;5.838;2022-12-28T13:16:08;4.00;;;2.13;;
21305;SDS011;10812;51.838;5.838;2022-12-28T13:18:38;3.93;;;2.00;;
21305;SDS011;10812;51.838;5.838;2022-12-28T13:21:15;2.90;;;1.60;;
21305;SDS011;10812;51.838;5.838;2022-12-28T13:23:46;4.57;;;2.17;;
21305;SDS011;10812;51.838;5.838;2022-12-28T13:26:15;3.17;;;2.03;;
21305;SDS011;10812;51.838;5.838;2022-12-28T13:28:54;6.83;;;2.63;;
21305;SDS011;10812;51.838;5.838;2022-12-28T13:31:30;4.73;;;2.50;;
21305;SDS011;10812;51.838;5.838;2022-12-28T13:34:01;3.83;;;2.20;;
21305;SDS011;10812;51.838;5.838;2022-12-28T13:36:30;3.40;;;1.87;;
21305;SDS011;10812;51.838;5.838;2022-12-28T13:39:01;3.00;;;2.40;;
21305;SDS011;10812;51.838;5.838;2022-12-28T13:41:37;5.00;;;2.30;;
21305;SDS011;10812;51.838;5.838;2022-12-28T13:44:20;7.27;;;2.43;;
21305;SDS011;10812;51.838;5.838;2022-12-28T13:47:03;5.70;;;2.23;;
21305;SDS011;10812;51.838;5.838;2022-12-28T13:49:38;7.00;;;2.67;;
21305;SDS011;10812;51.838;5.838;2022-12-28T13:52:11;4.23;;;2.20;;
21305;SDS011;10812;51.838;5.838;2022-12-28T13:54:45;6.87;;;3.13;;
21305;SDS011;10812;51.838;5.838;2022-12-28T13:57:18;3.07;;;2.40;;
21305;SDS011;10812;51.838;5.838;2022-12-28T14:00:09;3.27;;;1.83;;
21305;SDS011;10812;51.838;5.838;2022-12-28T14:02:39;4.60;;;1.73;;
21305;SDS011;10812;51.838;5.838;2022-12-28T14:05:13;3.83;;;1.93;;
21305;SDS011;10812;51.838;5.838;2022-12-28T14:07:43;4.43;;;1.90;;
21305;SDS011;10812;51.838;5.838;2022-12-28T14:10:13;4.17;;;1.70;;
21305;SDS011;10812;51.838;5.838;2022-12-28T14:12:41;4.43;;;1.90;;
21305;SDS011;10812;51.838;5.838;2022-12-28T14:15:11;5.80;;;2.43;;
21305;SDS011;10812;51.838;5.838;2022-12-28T14:17:43;3.80;;;2.10;;
21305;SDS011;10812;51.838;5.838;2022-12-28T14:20:13;4.83;;;1.93;;
21305;SDS011;10812;51.838;5.838;2022-12-28T14:22:41;4.83;;;2.10;;
21305;SDS011;10812;51.838;5.838;2022-12-28T14:25:10;4.27;;;1.77;;
21305;SDS011;10812;51.838;5.838;2022-12-28T14:27:42;5.40;;;2.40;;
21305;SDS011;10812;51.838;5.838;2022-12-28T14:30:20;6.23;;;2.20;;
21305;SDS011;10812;51.838;5.838;2022-12-28T14:32:51;4.00;;;2.20;;
21305;SDS011;10812;51.838;5.838;2022-12-28T14:35:21;3.73;;;2.03;;
21305;SDS011;10812;51.838;5.838;2022-12-28T14:37:52;3.97;;;2.03;;
21305;SDS011;10812;51.838;5.838;2022-12-28T14:40:24;3.70;;;1.60;;
21305;SDS011;10812;51.838;5.838;2022-12-28T14:42:55;5.43;;;2.03;;
21305;SDS011;10812;51.838;5.838;2022-12-28T14:45:33;2.90;;;1.80;;
21305;SDS011;10812;51.838;5.838;2022-12-28T14:48:31;2.20;;;1.20;;
21305;SDS011;10812;51.838;5.838;2022-12-28T14:51:03;4.20;;;2.20;;
21305;SDS011;10812;51.838;5.838;2022-12-28T14:53:32;4.83;;;1.77;;
21305;SDS011;10812;51.838;5.838;2022-12-28T14:56:02;2.97;;;1.87;;
21305;SDS011;10812;51.838;5.838;2022-12-28T14:58:36;3.57;;;1.80;;
21305;SDS011;10812;51.838;5.838;2022-12-28T15:01:16;5.00;;;2.20;;
21305;SDS011;10812;51.838;5.838;2022-12-28T15:03:48;3.63;;;1.83;;
21305;SDS011;10812;51.838;5.838;2022-12-28T15:06:18;5.93;;;1.30;;
21305;SDS011;10812;51.838;5.838;2022-12-28T15:08:47;3.40;;;1.70;;
21305;SDS011;10812;51.838;5.838;2022-12-28T15:11:16;4.07;;;1.73;;
21305;SDS011;10812;51.838;5.838;2022-12-28T15:13:45;4.33;;;2.00;;
21305;SDS011;10812;51.838;5.838;2022-12-28T15:16:13;4.77;;;2.03;;
21305;SDS011;10812;51.838;5.838;2022-12-28T15:18:43;3.57;;;1.83;;
21305;SDS011;10812;51.838;5.838;2022-12-28T15:21:14;4.30;;;1.53;;
21305;SDS011;10812;51.838;5.838;2022-12-28T15:23:46;3.37;;;1.43;;
21305;SDS011;10812;51.838;5.838;2022-12-28T15:26:15;4.37;;;1.30;;
21305;SDS011;10812;51.838;5.838;2022-12-28T15:28:43;3.43;;;1.63;;
21305;SDS011;10812;51.838;5.838;2022-12-28T15:31:12;4.20;;;2.00;;
21305;SDS011;10812;51.838;5.838;2022-12-28T15:33:43;4.03;;;2.40;;
21305;SDS011;10812;51.838;5.838;2022-12-28T15:36:13;3.50;;;1.47;;
21305;SDS011;10812;51.838;5.838;2022-12-28T15:38:44;4.60;;;1.77;;
21305;SDS011;10812;51.838;5.838;2022-12-28T15:41:12;4.23;;;2.27;;
21305;SDS011;10812;51.838;5.838;2022-12-28T15:43:58;6.83;;;1.90;;
21305;SDS011;10812;51.838;5.838;2022-12-28T15:46:27;3.40;;;1.60;;
21305;SDS011;10812;51.838;5.838;2022-12-28T15:48:55;4.93;;;2.00;;